Time;durP1;ratioP1;P1;durP2;ratioP2;P2;SDS_P1;SDS_P2;PMS_P1;PMS_P2;Temp;Humidity;BMP_temperature;BMP_pressure;BME280_temperature;BME280_humidity;BME280_pressure;Samples;Min_cycle;Max_cycle;Signal;HPM_P1;HPM_P2
2021/04/02 00:01:22;;;;;;;0.93;0.10;;;23.80;37.00;;;;;;5045551;28;20455;-78
2021/04/02 00:03:48;;;;;;;0.82;0.10;;;23.80;37.00;;;;;;5027935;28;20096;-78
2021/04/02 00:06:14;;;;;;;1.13;0.13;;;23.80;37.00;;;;;;5030988;28;20017;-79
2021/04/02 00:08:40;;;;;;;0.50;0.10;;;23.80;37.00;;;;;;5012370;28;20053;-78
2021/04/02 00:11:09;;;;;;;0.60;0.10;;;23.80;36.90;;;;;;5008089;28;20780;-78
2021/04/02 00:13:38;;;;;;;1.23;0.20;;;23.70;36.90;;;;;;5027496;28;20028;-79
2021/04/02 00:16:05;;;;;;;1.50;0.10;;;23.70;36.90;;;;;;5029893;28;20083;-78
2021/04/02 00:18:31;;;;;;;1.13;0.13;;;23.70;36.90;;;;;;5031814;28;20106;-78
2021/04/02 00:21:00;;;;;;;1.98;0.10;;;23.70;36.90;;;;;;5026522;28;20104;-78
2021/04/02 00:23:27;;;;;;;0.50;0.13;;;23.70;36.90;;;;;;5043366;28;20036;-77
2021/04/02 00:25:53;;;;;;;2.30;0.10;;;23.70;37.40;;;;;;5009707;28;20381;-78
2021/04/02 00:28:19;;;;;;;1.75;0.30;;;23.70;36.90;;;;;;5020402;28;20028;-78
2021/04/02 00:30:51;;;;;;;0.68;0.10;;;23.70;37.00;;;;;;5030205;28;20489;-78
2021/04/02 00:33:20;;;;;;;1.00;0.10;;;23.70;36.90;;;;;;5048050;28;20047;-78
2021/04/02 00:35:46;;;;;;;0.40;0.00;;;23.70;37.00;;;;;;5026174;28;20055;-78
2021/04/02 00:38:12;;;;;;;0.60;0.20;;;23.70;36.90;;;;;;5031646;28;20013;-79
2021/04/02 00:40:45;;;;;;;1.10;0.30;;;23.70;36.90;;;;;;5030568;28;20025;-78
2021/04/02 00:43:13;;;;;;;0.15;0.00;;;23.60;37.00;;;;;;5032548;28;20111;-78
2021/04/02 00:45:39;;;;;;;0.50;0.03;;;23.70;36.90;;;;;;5007985;28;20260;-78
2021/04/02 00:48:06;;;;;;;0.70;0.10;;;23.60;36.90;;;;;;5046373;28;20084;-79
2021/04/02 00:50:46;;;;;;;0.93;0.10;;;23.60;36.90;;;;;;5027429;28;20136;-79
2021/04/02 00:53:13;;;;;;;0.93;0.10;;;23.60;36.90;;;;;;5031922;28;20022;-78
2021/04/02 00:55:40;;;;;;;0.90;0.13;;;23.60;36.90;;;;;;5032074;28;20458;-79
2021/04/02 00:58:14;;;;;;;0.68;0.20;;;23.60;36.90;;;;;;5030061;28;20396;-79
2021/04/02 01:00:41;;;;;;;1.83;0.20;;;23.60;36.90;;;;;;5032745;28;20051;-78
2021/04/02 01:03:08;;;;;;;1.20;0.20;;;23.60;36.90;;;;;;5014733;28;20035;-79
2021/04/02 01:05:45;;;;;;;0.50;0.10;;;23.60;36.90;;;;;;5053467;28;20036;-79
2021/04/02 01:08:26;;;;;;;0.80;0.20;;;23.60;36.90;;;;;;5033160;28;20086;-78
2021/04/02 01:10:54;;;;;;;0.50;0.10;;;23.60;36.90;;;;;;5031830;28;20032;-79
2021/04/02 01:13:25;;;;;;;0.55;0.10;;;23.60;36.90;;;;;;5032101;28;20291;-79
2021/04/02 01:15:57;;;;;;;1.20;0.10;;;23.50;36.90;;;;;;5033300;28;20515;-79
2021/04/02 01:18:34;;;;;;;1.00;0.10;;;23.60;36.90;;;;;;5038407;28;20032;-79
2021/04/02 01:21:10;;;;;;;0.52;0.00;;;23.60;37.00;;;;;;5049836;28;20025;-79
2021/04/02 01:23:45;;;;;;;0.98;0.10;;;23.50;36.90;;;;;;5030818;28;20021;-79
2021/04/02 01:26:59;;;;;;;0.35;0.10;;;23.60;36.90;;;;;;5028535;28;20017;-79
2021/04/02 01:29:26;;;;;;;0.77;0.20;;;23.50;36.90;;;;;;4972767;28;20025;-79
2021/04/02 01:31:56;;;;;;;0.80;0.10;;;23.50;36.90;;;;;;5012008;28;20107;-79
2021/04/02 01:34:32;;;;;;;0.60;0.10;;;23.50;36.90;;;;;;5027699;28;20025;-78
2021/04/02 01:37:11;;;;;;;0.20;0.10;;;23.60;37.00;;;;;;5036679;28;20032;-78
2021/04/02 01:39:41;;;;;;;0.80;0.20;;;23.50;36.90;;;;;;5034620;28;20029;-78
2021/04/02 01:42:12;;;;;;;0.57;0.10;;;23.50;36.90;;;;;;5016641;28;20086;-78
2021/04/02 01:44:40;;;;;;;0.82;0.15;;;23.50;36.90;;;;;;5032949;28;20036;-78
2021/04/02 01:47:07;;;;;;;0.47;0.10;;;23.50;36.90;;;;;;5030556;28;20558;-78
2021/04/02 01:49:34;;;;;;;1.23;0.00;;;23.50;36.90;;;;;;5025462;28;20030;-78
2021/04/02 01:52:00;;;;;;;0.30;0.00;;;23.50;36.90;;;;;;5027144;28;20030;-79
2021/04/02 01:54:28;;;;;;;0.75;0.10;;;23.50;36.90;;;;;;5019606;28;20017;-78
2021/04/02 01:56:55;;;;;;;1.75;0.10;;;23.50;36.90;;;;;;5045021;28;20041;-78
2021/04/02 01:59:22;;;;;;;0.30;0.10;;;23.50;36.90;;;;;;5044667;28;20040;-79
2021/04/02 02:01:50;;;;;;;0.65;0.10;;;23.50;36.90;;;;;;5027161;28;20025;-80
2021/04/02 02:04:22;;;;;;;0.35;0.10;;;23.40;36.90;;;;;;5029485;28;20045;-79
2021/04/02 02:06:51;;;;;;;2.08;0.17;;;23.40;36.90;;;;;;5029297;28;20021;-79
2021/04/02 02:09:23;;;;;;;0.47;0.10;;;23.40;37.00;;;;;;5010999;28;20025;-79
2021/04/02 02:11:52;;;;;;;;;;;23.50;36.90;;;;;;5024966;28;20403;-79
2021/04/02 02:14:19;;;;;;;0.30;0.10;;;23.40;36.90;;;;;;5028181;28;19978;-78
2021/04/02 02:16:52;;;;;;;1.48;0.10;;;23.40;36.90;;;;;;5019366;28;20090;-78
2021/04/02 02:19:23;;;;;;;0.98;0.10;;;23.40;36.90;;;;;;5031611;28;20113;-78
2021/04/02 02:21:51;;;;;;;0.28;0.10;;;23.40;36.80;;;;;;5048755;28;20029;-79
2021/04/02 02:24:18;;;;;;;0.20;0.00;;;23.40;36.90;;;;;;5047059;28;20111;-79
2021/04/02 02:26:44;;;;;;;0.25;0.10;;;23.40;36.80;;;;;;5043330;28;20063;-78
2021/04/02 02:29:11;;;;;;;0.68;0.10;;;23.40;36.80;;;;;;5029035;28;20041;-78
2021/04/02 02:31:38;;;;;;;0.80;0.10;;;23.40;36.90;;;;;;5031645;28;20070;-79
2021/04/02 02:34:06;;;;;;;0.20;0.10;;;23.40;36.80;;;;;;5052412;28;20052;-79
2021/04/02 02:36:33;;;;;;;0.50;0.10;;;23.40;36.80;;;;;;5046446;28;20068;-78
2021/04/02 02:38:59;;;;;;;0.50;0.10;;;23.40;36.80;;;;;;5051453;28;20035;-78
2021/04/02 02:41:27;;;;;;;0.63;0.10;;;23.30;36.70;;;;;;5016383;28;20404;-78
2021/04/02 02:43:54;;;;;;;0.25;0.10;;;23.30;36.80;;;;;;5048536;28;20552;-78
2021/04/02 02:46:20;;;;;;;0.73;0.10;;;23.30;36.80;;;;;;5033042;28;20029;-78
2021/04/02 02:48:49;;;;;;;0.40;0.05;;;23.40;36.80;;;;;;5014279;28;20037;-79
2021/04/02 02:51:16;;;;;;;1.17;0.17;;;23.40;36.80;;;;;;5015900;28;20021;-77
2021/04/02 02:53:45;;;;;;;1.38;0.10;;;23.30;36.80;;;;;;5036618;28;20024;-78
2021/04/02 02:56:12;;;;;;;1.55;0.10;;;23.30;37.30;;;;;;5033347;28;20060;-79
2021/04/02 02:58:39;;;;;;;1.00;0.10;;;23.30;36.80;;;;;;5028005;28;20558;-78
2021/04/02 03:01:07;;;;;;;0.55;0.10;;;23.30;36.80;;;;;;5050429;28;20086;-79
2021/04/02 03:03:34;;;;;;;0.43;0.10;;;23.30;36.80;;;;;;5013102;28;20036;-79
2021/04/02 03:06:01;;;;;;;0.35;0.10;;;23.30;36.80;;;;;;5030654;28;20025;-78
2021/04/02 03:08:34;;;;;;;0.52;0.10;;;23.30;36.80;;;;;;5028118;28;20025;-79
2021/04/02 03:11:01;;;;;;;0.52;0.10;;;23.30;36.80;;;;;;5030483;28;20079;-78
2021/04/02 03:13:28;;;;;;;0.32;0.00;;;23.30;36.80;;;;;;5051141;28;20026;-78
2021/04/02 03:15:58;;;;;;;1.40;0.10;;;23.30;36.80;;;;;;5051098;28;20021;-78
2021/04/02 03:18:25;;;;;;;0.30;0.10;;;23.20;36.80;;;;;;5031510;28;20028;-77
2021/04/02 03:20:53;;;;;;;0.50;0.10;;;23.20;36.80;;;;;;5014061;28;20059;-78
2021/04/02 03:23:20;;;;;;;0.32;0.10;;;23.20;36.80;;;;;;5029409;28;20029;-77
2021/04/02 03:25:47;;;;;;;0.82;0.10;;;23.20;36.80;;;;;;5027947;28;20021;-78
2021/04/02 03:28:17;;;;;;;0.30;0.00;;;23.20;36.70;;;;;;5032847;28;20013;-77
2021/04/02 03:30:45;;;;;;;0.35;0.00;;;23.20;36.80;;;;;;5017564;28;20031;-78
2021/04/02 03:33:18;;;;;;;0.30;0.10;;;23.20;36.70;;;;;;5012225;28;20029;-78
2021/04/02 03:35:45;;;;;;;0.28;0.00;;;23.20;36.80;;;;;;5013870;28;20037;-78
2021/04/02 03:38:14;;;;;;;1.63;0.00;;;23.20;36.80;;;;;;5015101;28;20631;-79
2021/04/02 03:40:41;;;;;;;0.52;0.13;;;23.10;36.80;;;;;;5033724;28;20044;-78
2021/04/02 03:43:08;;;;;;;0.30;0.10;;;23.20;36.80;;;;;;5030121;28;20549;-78
2021/04/02 03:45:39;;;;;;;0.82;0.10;;;23.10;36.80;;;;;;5008197;28;20039;-79
2021/04/02 03:48:08;;;;;;;0.43;0.03;;;23.20;36.80;;;;;;5016320;28;20025;-78
2021/04/02 03:50:37;;;;;;;0.38;0.05;;;23.10;36.80;;;;;;5032060;28;20396;-79
2021/04/02 03:53:08;;;;;;;0.70;0.03;;;23.20;36.80;;;;;;5014178;28;20095;-79
2021/04/02 03:55:38;;;;;;;1.27;0.10;;;23.10;36.80;;;;;;5028342;28;20438;-79
2021/04/02 03:58:07;;;;;;;0.80;0.10;;;23.10;36.80;;;;;;5013256;28;20658;-79
2021/04/02 04:00:49;;;;;;;0.32;0.10;;;23.10;36.80;;;;;;5034271;28;20511;-79
2021/04/02 04:03:17;;;;;;;0.82;0.10;;;23.10;36.80;;;;;;5026881;28;20033;-78
2021/04/02 04:05:48;;;;;;;0.40;0.10;;;23.10;36.80;;;;;;5014394;28;20020;-79
2021/04/02 04:08:16;;;;;;;0.32;0.10;;;23.10;36.80;;;;;;5028061;28;20028;-78
2021/04/02 04:10:45;;;;;;;0.38;0.10;;;23.10;36.90;;;;;;5041107;28;20025;-78
2021/04/02 04:13:14;;;;;;;1.65;0.10;;;23.10;36.90;;;;;;5030522;28;20035;-77
2021/04/02 04:15:41;;;;;;;0.70;0.10;;;23.10;36.80;;;;;;5043553;28;20037;-78
2021/04/02 04:18:09;;;;;;;1.67;0.10;;;23.10;36.80;;;;;;5012665;28;20025;-78
2021/04/02 04:20:36;;;;;;;0.60;0.10;;;23.10;36.80;;;;;;5034695;28;20071;-78
2021/04/02 04:23:04;;;;;;;0.38;0.10;;;23.10;36.80;;;;;;5052926;28;20562;-78
2021/04/02 04:25:31;;;;;;;0.85;0.10;;;23.10;36.80;;;;;;5048607;28;20082;-79
2021/04/02 04:27:59;;;;;;;0.77;0.20;;;23.00;36.70;;;;;;5046035;28;20549;-79
2021/04/02 04:30:26;;;;;;;2.80;0.10;;;23.00;36.70;;;;;;5010103;28;20049;-78
2021/04/02 04:32:55;;;;;;;1.73;0.10;;;23.00;36.70;;;;;;5030222;28;20028;-78
2021/04/02 04:35:22;;;;;;;1.60;0.17;;;23.00;36.70;;;;;;5032684;28;20029;-78
2021/04/02 04:37:50;;;;;;;0.40;0.10;;;23.00;36.80;;;;;;5032927;28;20021;-80
2021/04/02 04:40:19;;;;;;;0.40;0.10;;;23.00;36.70;;;;;;5012666;28;20018;-78
2021/04/02 04:42:47;;;;;;;0.52;0.10;;;23.00;36.80;;;;;;5050148;28;20032;-78
2021/04/02 04:45:21;;;;;;;0.90;0.15;;;23.00;36.70;;;;;;5010809;28;20017;-78
2021/04/02 04:47:48;;;;;;;0.38;0.10;;;23.00;36.70;;;;;;5012671;28;20025;-79
2021/04/02 04:50:15;;;;;;;0.50;0.10;;;23.00;36.70;;;;;;5043153;28;20031;-78
2021/04/02 04:52:52;;;;;;;2.55;0.10;;;23.00;36.70;;;;;;5034125;28;20086;-78
2021/04/02 04:55:20;;;;;;;0.98;0.20;;;23.00;36.70;;;;;;5010009;28;20030;-78
2021/04/02 04:57:50;;;;;;;0.20;0.10;;;23.00;36.70;;;;;;5030341;28;20041;-79
2021/04/02 05:00:18;;;;;;;1.25;0.10;;;23.00;36.70;;;;;;5025650;28;20108;-78
2021/04/02 05:02:46;;;;;;;1.27;0.00;;;23.00;37.20;;;;;;5035969;28;20579;-78
2021/04/02 05:05:21;;;;;;;0.25;0.00;;;22.90;36.60;;;;;;5029913;28;20013;-79
2021/04/02 05:07:49;;;;;;;0.50;0.10;;;23.00;36.70;;;;;;5030445;28;20059;-79
2021/04/02 05:10:19;;;;;;;0.40;0.30;;;22.90;36.70;;;;;;5050862;28;20047;-79
2021/04/02 05:12:48;;;;;;;0.20;0.00;;;23.00;36.70;;;;;;5033702;28;20037;-78
2021/04/02 05:15:15;;;;;;;0.13;0.00;;;22.90;36.60;;;;;;5043603;28;20024;-79
2021/04/02 05:17:42;;;;;;;0.68;0.05;;;22.90;36.60;;;;;;5049113;28;20026;-78
2021/04/02 05:20:10;;;;;;;1.65;0.10;;;23.00;36.70;;;;;;5030143;28;20107;-78
2021/04/02 05:22:36;;;;;;;1.10;0.10;;;22.90;36.60;;;;;;5012313;28;20033;-79
2021/04/02 05:25:04;;;;;;;0.40;0.00;;;22.90;36.60;;;;;;5045079;28;20281;-78
2021/04/02 05:27:30;;;;;;;0.60;0.00;;;22.90;36.60;;;;;;5034861;28;20039;-77
2021/04/02 05:29:58;;;;;;;0.65;0.10;;;22.90;36.60;;;;;;5058200;28;20021;-77
2021/04/02 05:32:24;;;;;;;0.55;0.10;;;22.90;36.60;;;;;;5059450;28;20040;-78
2021/04/02 05:34:50;;;;;;;2.30;0.10;;;22.90;36.60;;;;;;5046249;28;20043;-78
2021/04/02 05:37:16;;;;;;;0.30;0.00;;;22.90;36.60;;;;;;5033147;28;20017;-79
2021/04/02 05:39:41;;;;;;;0.52;0.10;;;22.90;36.60;;;;;;5033247;28;20025;-78
2021/04/02 05:42:10;;;;;;;0.68;0.10;;;22.90;36.60;;;;;;5028908;28;20117;-79
2021/04/02 05:44:37;;;;;;;1.52;0.10;;;22.90;36.60;;;;;;5045359;28;20017;-78
2021/04/02 05:47:06;;;;;;;0.30;0.00;;;22.90;36.70;;;;;;5026111;28;20029;-79
2021/04/02 05:49:32;;;;;;;0.70;0.10;;;22.90;36.70;;;;;;5027907;28;20037;-79
2021/04/02 05:52:00;;;;;;;0.65;0.10;;;22.90;36.60;;;;;;5009096;28;20082;-78
2021/04/02 05:54:35;;;;;;;0.77;0.10;;;22.90;36.60;;;;;;5013706;28;20990;-79
2021/04/02 05:57:01;;;;;;;0.80;0.20;;;22.90;36.60;;;;;;5012544;28;20538;-78
2021/04/02 05:59:28;;;;;;;0.63;0.20;;;22.90;37.10;;;;;;5026688;28;20040;-79
2021/04/02 06:01:54;;;;;;;0.50;0.10;;;22.80;36.60;;;;;;5047528;28;20033;-78
2021/04/02 06:04:21;;;;;;;0.28;0.00;;;22.90;36.60;;;;;;5031782;28;20377;-79
2021/04/02 06:06:48;;;;;;;0.40;0.05;;;22.90;36.60;;;;;;5054581;28;20032;-79
2021/04/02 06:09:14;;;;;;;0.55;0.28;;;22.90;36.60;;;;;;5028152;28;20388;-79
2021/04/02 06:11:41;;;;;;;1.20;0.20;;;22.90;36.60;;;;;;5032655;28;20025;-78
2021/04/02 06:14:08;;;;;;;1.23;0.00;;;22.80;36.60;;;;;;5015338;28;20025;-77
2021/04/02 06:16:34;;;;;;;0.20;0.00;;;22.80;36.50;;;;;;5029363;28;20022;-79
2021/04/02 06:19:09;;;;;;;0.85;0.10;;;22.80;36.50;;;;;;5051862;28;20059;-78
2021/04/02 06:21:55;;;;;;;2.60;0.20;;;22.80;36.30;;;;;;5050715;28;20043;-77
2021/04/02 06:24:41;;;;;;;1.48;0.10;;;22.80;36.40;;;;;;5037827;28;20733;-77
2021/04/02 06:27:09;;;;;;;1.13;0.20;;;22.80;36.90;;;;;;5047222;28;21184;-77
2021/04/02 06:29:38;;;;;;;1.23;0.20;;;22.80;36.40;;;;;;5034687;28;20546;-77
2021/04/02 06:32:06;;;;;;;1.27;0.10;;;22.80;36.50;;;;;;5044898;28;20064;-77
2021/04/02 06:34:32;;;;;;;0.50;0.10;;;22.80;36.40;;;;;;5031095;28;20029;-78
2021/04/02 06:37:02;;;;;;;1.23;0.10;;;22.80;36.40;;;;;;5028765;28;20120;-77
2021/04/02 06:39:35;;;;;;;2.08;0.20;;;22.80;36.40;;;;;;5047950;28;20056;-77
2021/04/02 06:42:05;;;;;;;1.55;0.20;;;22.80;36.30;;;;;;5013680;28;20045;-77
2021/04/02 06:44:32;;;;;;;2.38;0.20;;;22.80;36.30;;;;;;5051447;28;20032;-79
2021/04/02 06:46:58;;;;;;;1.52;0.45;;;22.80;36.30;;;;;;5039953;28;20113;-77
2021/04/02 06:49:25;;;;;;;1.67;0.30;;;22.80;36.20;;;;;;5050307;28;20492;-77
2021/04/02 06:51:53;;;;;;;0.80;0.13;;;22.80;36.20;;;;;;5051450;28;20374;-77
2021/04/02 06:54:22;;;;;;;2.90;0.60;;;22.80;36.30;;;;;;5018889;28;20028;-78
2021/04/02 06:56:56;;;;;;;2.95;0.68;;;22.80;36.20;;;;;;5035622;28;20033;-78
2021/04/02 06:59:24;;;;;;;2.17;0.40;;;22.80;36.20;;;;;;5038397;28;20057;-80
2021/04/02 07:01:52;;;;;;;0.82;0.38;;;22.80;36.20;;;;;;5038469;28;20048;-78
2021/04/02 07:04:23;;;;;;;2.17;0.20;;;22.70;36.20;;;;;;5022441;28;20025;-78
2021/04/02 07:06:53;;;;;;;1.58;0.20;;;22.80;36.20;;;;;;5051437;28;20025;-77
2021/04/02 07:09:22;;;;;;;2.95;0.25;;;22.80;36.20;;;;;;5034819;28;20028;-78
2021/04/02 07:11:52;;;;;;;1.05;0.20;;;22.80;36.20;;;;;;5018924;28;20060;-78
2021/04/02 07:14:19;;;;;;;1.52;0.20;;;22.80;36.30;;;;;;5033102;28;20025;-78
2021/04/02 07:16:45;;;;;;;0.90;0.20;;;22.80;36.20;;;;;;5013352;28;20033;-78
2021/04/02 07:19:12;;;;;;;1.75;0.30;;;22.80;36.20;;;;;;5016565;28;20036;-78
2021/04/02 07:21:40;;;;;;;1.83;0.22;;;22.70;36.10;;;;;;5030072;28;20032;-78
2021/04/02 07:24:07;;;;;;;1.65;0.30;;;22.70;36.10;;;;;;5014872;28;20025;-78
2021/04/02 07:26:34;;;;;;;1.20;0.28;;;22.80;36.20;;;;;;5048768;28;20026;-78
2021/04/02 07:29:00;;;;;;;0.68;0.20;;;22.80;36.10;;;;;;5050937;28;20009;-78
2021/04/02 07:31:27;;;;;;;1.10;0.25;;;22.80;36.10;;;;;;5032182;28;20027;-78
2021/04/02 07:33:54;;;;;;;2.03;0.20;;;22.70;36.10;;;;;;5017571;28;20523;-78
2021/04/02 07:36:21;;;;;;;0.45;0.20;;;22.70;36.10;;;;;;5051353;28;20025;-78
2021/04/02 07:38:50;;;;;;;1.75;0.28;;;22.70;36.00;;;;;;5052120;28;20028;-77
2021/04/02 07:41:17;;;;;;;0.75;0.10;;;22.70;36.10;;;;;;5029281;28;20017;-78
2021/04/02 07:43:52;;;;;;;0.90;0.20;;;22.70;36.10;;;;;;5021041;28;20029;-78
2021/04/02 07:46:29;;;;;;;0.82;0.20;;;22.70;36.10;;;;;;5049487;28;20021;-79
2021/04/02 07:49:09;;;;;;;1.20;0.30;;;22.70;36.10;;;;;;5030407;28;20516;-80
2021/04/02 07:51:50;;;;;;;1.02;0.22;;;22.70;36.10;;;;;;5014045;28;20029;-79
2021/04/02 07:54:19;;;;;;;;;;;22.70;36.10;;;;;;5032036;28;20759;-79
2021/04/02 07:56:50;;;;;;;0.65;0.20;;;22.70;36.10;;;;;;5046245;28;19913;-79
2021/04/02 07:59:17;;;;;;;2.05;0.50;;;22.70;36.30;;;;;;5047390;28;20706;-79
2021/04/02 08:01:57;;;;;;;1.38;0.20;;;22.70;36.10;;;;;;5016283;28;20040;-78
2021/04/02 08:04:37;;;;;;;0.90;0.20;;;22.70;36.10;;;;;;5048996;28;20582;-78
2021/04/02 08:07:04;;;;;;;1.33;0.38;;;22.70;36.10;;;;;;5028792;28;20116;-79
2021/04/02 08:09:31;;;;;;;1.58;0.30;;;22.70;36.10;;;;;;5030969;28;20043;-79
2021/04/02 08:11:58;;;;;;;1.52;0.20;;;22.70;36.10;;;;;;5030128;28;20028;-79
2021/04/02 08:14:31;;;;;;;2.33;0.30;;;22.70;36.10;;;;;;5027909;28;20024;-79
2021/04/02 08:16:57;;;;;;;1.58;0.70;;;22.70;36.10;;;;;;5037516;28;20384;-79
2021/04/02 08:19:33;;;;;;;1.35;0.20;;;22.70;36.20;;;;;;5016342;28;20021;-78
2021/04/02 08:22:14;;;;;;;0.82;0.43;;;22.70;36.10;;;;;;5032451;28;20499;-79
2021/04/02 08:24:42;;;;;;;1.55;0.52;;;22.70;36.10;;;;;;5029804;28;20056;-78
2021/04/02 08:27:10;;;;;;;1.52;0.68;;;22.70;36.20;;;;;;5031468;28;20013;-79
2021/04/02 08:29:38;;;;;;;2.15;0.30;;;22.70;36.10;;;;;;5036253;28;20116;-79
2021/04/02 08:32:07;;;;;;;1.10;0.35;;;22.70;36.40;;;;;;5050396;28;20025;-79
2021/04/02 08:34:36;;;;;;;1.13;0.30;;;22.70;36.10;;;;;;5016479;28;20060;-80
2021/04/02 08:37:04;;;;;;;1.38;0.40;;;22.70;36.20;;;;;;5011346;28;20072;-81
2021/04/02 08:39:31;;;;;;;0.90;0.20;;;22.70;36.10;;;;;;5023650;28;20096;-81
2021/04/02 08:42:02;;;;;;;1.48;0.35;;;22.70;36.10;;;;;;5013633;28;20124;-81
2021/04/02 08:44:36;;;;;;;1.48;0.40;;;22.70;36.10;;;;;;5032130;28;20514;-80
2021/04/02 08:47:05;;;;;;;1.63;0.43;;;22.70;36.20;;;;;;5011413;28;20504;-81
2021/04/02 08:49:49;;;;;;;3.85;0.98;;;22.70;36.20;;;;;;5030317;28;20079;-80
2021/04/02 08:52:27;;;;;;;0.70;0.30;;;22.70;36.20;;;;;;5029830;28;20025;-80
2021/04/02 08:55:06;;;;;;;3.35;0.40;;;22.70;36.20;;;;;;5043618;28;20025;-80
2021/04/02 08:57:33;;;;;;;1.20;0.65;;;22.70;36.20;;;;;;5031211;28;20029;-80
2021/04/02 09:00:01;;;;;;;2.25;0.93;;;22.60;36.10;;;;;;5013100;28;20029;-79
2021/04/02 09:02:30;;;;;;;1.52;0.52;;;22.70;36.20;;;;;;5031195;28;20021;-79
2021/04/02 09:04:56;;;;;;;0.90;0.40;;;22.60;36.10;;;;;;5012975;28;20500;-79
2021/04/02 09:07:23;;;;;;;2.50;0.65;;;22.60;36.10;;;;;;5014868;28;20032;-79
2021/04/02 09:09:49;;;;;;;1.45;0.95;;;22.70;36.20;;;;;;5029351;28;20137;-79
2021/04/02 09:12:18;;;;;;;3.30;0.80;;;22.60;36.10;;;;;;5012712;28;20804;-80
2021/04/02 09:14:46;;;;;;;1.38;0.80;;;22.60;36.20;;;;;;5033595;28;20026;-79
2021/04/02 09:17:14;;;;;;;1.70;0.73;;;22.60;36.20;;;;;;5046874;28;20125;-79
2021/04/02 09:19:41;;;;;;;1.60;0.77;;;22.60;36.20;;;;;;5029200;28;20100;-79
2021/04/02 09:22:08;;;;;;;2.13;0.80;;;22.60;36.20;;;;;;5033575;28;20021;-79
2021/04/02 09:24:42;;;;;;;2.45;1.20;;;22.60;36.20;;;;;;5010526;28;20029;-79
2021/04/02 09:27:09;;;;;;;1.98;0.98;;;22.60;36.20;;;;;;5030716;28;20047;-79
2021/04/02 09:29:35;;;;;;;2.95;0.85;;;22.60;36.20;;;;;;5049693;28;20026;-79
2021/04/02 09:32:03;;;;;;;3.42;1.02;;;22.60;36.20;;;;;;5048686;28;20477;-78
2021/04/02 09:34:30;;;;;;;1.92;1.13;;;22.60;36.30;;;;;;5052400;28;20017;-79
2021/04/02 09:36:56;;;;;;;1.80;1.00;;;22.60;36.20;;;;;;5029982;28;20032;-79
2021/04/02 09:39:23;;;;;;;1.42;0.75;;;22.60;36.20;;;;;;5033469;28;20059;-79
2021/04/02 09:41:49;;;;;;;1.30;0.95;;;22.60;36.20;;;;;;5031259;28;20032;-79
2021/04/02 09:44:17;;;;;;;1.48;0.70;;;22.60;36.30;;;;;;5030934;28;20025;-80
2021/04/02 09:46:45;;;;;;;1.73;1.08;;;22.60;36.40;;;;;;5027121;28;20022;-80
2021/04/02 09:49:18;;;;;;;4.15;1.10;;;22.60;36.40;;;;;;5046060;28;20019;-79
2021/04/02 09:51:49;;;;;;;2.00;1.20;;;22.60;36.30;;;;;;5015719;28;20032;-79
2021/04/02 09:54:16;;;;;;;1.97;1.30;;;22.60;36.30;;;;;;5015644;28;20053;-79
2021/04/02 09:56:44;;;;;;;1.20;0.82;;;22.60;36.40;;;;;;5049715;28;20107;-79
2021/04/02 09:59:11;;;;;;;1.73;0.98;;;22.60;36.40;;;;;;5051517;28;20028;-80
2021/04/02 10:01:39;;;;;;;2.03;0.98;;;22.60;36.40;;;;;;5033121;28;20025;-79
2021/04/02 10:04:06;;;;;;;2.47;1.40;;;22.60;36.40;;;;;;5055558;28;20021;-79
2021/04/02 10:06:33;;;;;;;1.55;1.00;;;22.60;36.40;;;;;;5055702;28;20024;-78
2021/04/02 10:09:00;;;;;;;1.83;0.85;;;22.60;36.40;;;;;;5030251;28;20021;-80
2021/04/02 10:11:27;;;;;;;2.63;1.02;;;22.60;36.30;;;;;;5016796;28;20029;-79
2021/04/02 10:13:53;;;;;;;1.45;0.80;;;22.60;36.30;;;;;;5029370;28;20091;-78
2021/04/02 10:16:20;;;;;;;3.25;1.60;;;22.60;36.40;;;;;;5038745;28;20044;-78
2021/04/02 10:18:48;;;;;;;2.38;1.50;;;22.60;36.30;;;;;;5037134;28;20051;-79
2021/04/02 10:21:15;;;;;;;1.30;0.80;;;22.60;36.30;;;;;;5049148;28;20028;-79
2021/04/02 10:23:41;;;;;;;1.50;0.80;;;22.60;36.40;;;;;;5013211;28;20108;-78
2021/04/02 10:26:07;;;;;;;2.05;1.20;;;22.60;36.40;;;;;;5033114;28;20021;-79
2021/04/02 10:28:33;;;;;;;2.33;0.90;;;22.60;36.40;;;;;;5029150;28;20028;-78
2021/04/02 10:31:00;;;;;;;3.88;1.38;;;22.60;36.30;;;;;;5027605;28;20017;-79
2021/04/02 10:33:26;;;;;;;1.58;0.80;;;22.60;36.30;;;;;;5014498;28;20029;-80
2021/04/02 10:35:52;;;;;;;1.55;0.90;;;22.60;36.40;;;;;;5045828;28;20409;-78
2021/04/02 10:38:18;;;;;;;1.52;0.40;;;22.60;36.30;;;;;;5031390;28;20025;-80
2021/04/02 10:40:47;;;;;;;1.58;1.25;;;22.60;36.40;;;;;;5034626;28;20025;-79
2021/04/02 10:43:13;;;;;;;1.98;0.63;;;22.60;36.30;;;;;;5033752;28;20041;-78
2021/04/02 10:45:40;;;;;;;1.63;0.85;;;22.60;36.30;;;;;;5046569;28;20037;-78
2021/04/02 10:48:06;;;;;;;2.42;0.70;;;22.60;36.40;;;;;;5028944;28;20079;-79
2021/04/02 10:50:33;;;;;;;1.50;1.27;;;22.60;36.30;;;;;;5015313;28;20554;-79
2021/04/02 10:52:59;;;;;;;1.55;0.80;;;22.60;36.40;;;;;;5029827;28;20093;-79
2021/04/02 10:55:25;;;;;;;1.75;0.70;;;22.60;36.40;;;;;;5026682;28;20025;-79
2021/04/02 10:57:52;;;;;;;2.38;0.93;;;22.60;36.30;;;;;;5032087;28;20029;-78
2021/04/02 11:00:19;;;;;;;1.83;0.75;;;22.60;36.40;;;;;;5027311;28;20051;-79
2021/04/02 11:02:45;;;;;;;1.70;0.68;;;22.60;36.40;;;;;;5012824;28;20086;-78
2021/04/02 11:05:11;;;;;;;1.30;0.65;;;22.60;36.40;;;;;;5044257;28;20250;-77
2021/04/02 11:07:38;;;;;;;1.90;0.60;;;22.60;36.40;;;;;;5063871;28;20028;-77
2021/04/02 11:10:09;;;;;;;2.17;0.90;;;22.60;36.30;;;;;;5050101;28;20025;-78
2021/04/02 11:12:36;;;;;;;1.70;0.85;;;22.60;36.30;;;;;;5038658;28;20083;-78
2021/04/02 11:15:03;;;;;;;0.95;0.55;;;22.60;36.40;;;;;;5028968;28;20021;-78
2021/04/02 11:17:29;;;;;;;1.33;0.47;;;22.60;36.40;;;;;;5011595;28;20511;-79
2021/04/02 11:19:56;;;;;;;1.00;0.65;;;22.60;36.40;;;;;;5051904;28;20094;-78
2021/04/02 11:22:22;;;;;;;1.60;0.47;;;22.60;36.40;;;;;;5032424;28;20060;-78
2021/04/02 11:24:48;;;;;;;1.25;0.60;;;22.60;36.30;;;;;;5035430;28;20017;-78
2021/04/02 11:27:15;;;;;;;0.63;0.32;;;22.60;36.30;;;;;;5030786;28;20393;-77
2021/04/02 11:29:41;;;;;;;1.52;0.68;;;22.60;36.40;;;;;;5045552;28;20362;-78
2021/04/02 11:32:08;;;;;;;1.55;0.50;;;22.60;36.40;;;;;;5027306;28;20029;-78
2021/04/02 11:34:35;;;;;;;0.80;0.40;;;22.60;36.40;;;;;;5047353;28;20021;-78
2021/04/02 11:37:02;;;;;;;1.55;0.40;;;22.60;36.40;;;;;;5042053;28;20017;-77
2021/04/02 11:39:28;;;;;;;1.00;0.50;;;22.60;36.90;;;;;;5028805;28;20090;-77
2021/04/02 11:41:54;;;;;;;1.65;0.70;;;22.60;36.40;;;;;;5029604;28;20029;-78
2021/04/02 11:44:20;;;;;;;0.75;0.40;;;22.60;36.40;;;;;;5047318;28;20028;-77
2021/04/02 11:46:47;;;;;;;2.33;0.50;;;22.60;36.30;;;;;;5053572;28;20017;-78
2021/04/02 11:49:13;;;;;;;1.92;0.47;;;22.60;36.50;;;;;;5012181;28;20018;-78
2021/04/02 11:51:39;;;;;;;0.85;0.40;;;22.60;36.30;;;;;;5016007;28;20025;-77
2021/04/02 11:54:05;;;;;;;2.35;0.57;;;22.60;36.40;;;;;;5051536;28;20032;-77
2021/04/02 11:56:31;;;;;;;1.02;0.40;;;22.60;36.40;;;;;;5030968;28;20108;-77
2021/04/02 11:58:57;;;;;;;4.50;0.50;;;22.60;36.40;;;;;;5041308;28;20031;-77
2021/04/02 12:01:23;;;;;;;2.05;0.57;;;22.60;36.40;;;;;;5035445;28;20393;-77
2021/04/02 12:03:50;;;;;;;1.25;0.40;;;22.60;36.40;;;;;;5026335;28;20029;-77
2021/04/02 12:06:16;;;;;;;1.77;0.50;;;22.60;36.40;;;;;;5024648;28;20022;-77
2021/04/02 12:08:42;;;;;;;1.00;0.60;;;22.60;36.30;;;;;;5017816;28;20119;-78
2021/04/02 12:11:08;;;;;;;1.92;0.60;;;22.60;36.30;;;;;;5027844;28;20106;-76
2021/04/02 12:13:34;;;;;;;2.35;0.60;;;22.60;36.30;;;;;;5030528;28;20040;-77
2021/04/02 12:16:00;;;;;;;2.13;0.80;;;22.60;36.30;;;;;;5012603;28;20025;-78
2021/04/02 12:18:26;;;;;;;1.38;0.52;;;22.60;36.30;;;;;;5031748;28;20032;-77
2021/04/02 12:20:52;;;;;;;0.70;0.40;;;22.60;36.30;;;;;;5045641;28;20493;-77
2021/04/02 12:23:18;;;;;;;3.00;0.40;;;22.60;36.30;;;;;;5027007;28;20035;-77
2021/04/02 12:25:45;;;;;;;0.80;0.40;;;22.60;36.20;;;;;;5026384;28;20409;-78
2021/04/02 12:28:11;;;;;;;1.83;0.70;;;22.60;36.20;;;;;;5032841;28;20041;-77
2021/04/02 12:30:37;;;;;;;2.30;0.95;;;22.60;36.30;;;;;;5013189;28;20120;-78
2021/04/02 12:33:04;;;;;;;1.35;0.65;;;22.60;36.40;;;;;;5034060;28;20063;-77
2021/04/02 12:35:31;;;;;;;2.40;0.60;;;22.60;36.60;;;;;;5049718;28;20075;-77
2021/04/02 12:37:57;;;;;;;1.05;0.55;;;22.60;37.20;;;;;;5026045;28;20025;-77
2021/04/02 12:40:24;;;;;;;2.00;0.63;;;22.60;36.90;;;;;;5030478;28;20025;-77
2021/04/02 12:42:51;;;;;;;2.65;0.50;;;22.60;37.10;;;;;;5050019;28;20016;-76
2021/04/02 12:45:17;;;;;;;4.13;1.15;;;22.60;37.20;;;;;;5051860;28;20028;-78
2021/04/02 12:47:45;;;;;;;2.05;0.77;;;22.60;37.20;;;;;;5031178;28;20020;-77
2021/04/02 12:50:17;;;;;;;2.28;0.85;;;22.60;37.10;;;;;;5028084;28;20021;-77
2021/04/02 12:52:43;;;;;;;4.22;0.40;;;22.60;37.10;;;;;;5045472;28;20025;-77
2021/04/02 12:55:20;;;;;;;2.95;0.70;;;22.60;37.10;;;;;;5031227;28;20025;-79